sensor_id;sensor_type;location;lat;lon;timestamp;P1;durP1;ratioP1;P2;durP2;ratioP2
37633;SDS011;32048;49.902;22.508;2023-06-14T00:01:35;17.00;;;10.50;;
37633;SDS011;32048;49.902;22.508;2023-06-14T00:04:02;18.10;;;10.07;;
37633;SDS011;32048;49.902;22.508;2023-06-14T00:06:29;14.48;;;9.48;;
37633;SDS011;32048;49.902;22.508;2023-06-14T00:08:57;13.77;;;9.23;;
37633;SDS011;32048;49.902;22.508;2023-06-14T00:11:24;13.18;;;9.60;;
37633;SDS011;32048;49.902;22.508;2023-06-14T00:13:53;14.15;;;9.90;;
37633;SDS011;32048;49.902;22.508;2023-06-14T00:16:20;14.52;;;9.65;;
37633;SDS011;32048;49.902;22.508;2023-06-14T00:18:47;13.65;;;9.88;;
37633;SDS011;32048;49.902;22.508;2023-06-14T00:21:14;14.75;;;9.10;;
37633;SDS011;32048;49.902;22.508;2023-06-14T00:23:41;12.70;;;9.02;;
37633;SDS011;32048;49.902;22.508;2023-06-14T00:26:09;13.27;;;8.95;;
37633;SDS011;32048;49.902;22.508;2023-06-14T00:28:36;12.90;;;9.40;;
37633;SDS011;32048;49.902;22.508;2023-06-14T00:31:03;15.75;;;9.70;;
37633;SDS011;32048;49.902;22.508;2023-06-14T00:33:30;18.25;;;9.43;;
37633;SDS011;32048;49.902;22.508;2023-06-14T00:35:57;15.00;;;10.20;;
37633;SDS011;32048;49.902;22.508;2023-06-14T00:38:24;16.95;;;9.88;;
37633;SDS011;32048;49.902;22.508;2023-06-14T00:40:51;15.75;;;9.40;;
37633;SDS011;32048;49.902;22.508;2023-06-14T00:43:18;15.70;;;8.30;;
37633;SDS011;32048;49.902;22.508;2023-06-14T00:45:45;17.38;;;10.02;;
37633;SDS011;32048;49.902;22.508;2023-06-14T00:48:13;15.25;;;10.10;;
37633;SDS011;32048;49.902;22.508;2023-06-14T00:50:40;14.20;;;10.38;;
37633;SDS011;32048;49.902;22.508;2023-06-14T00:53:08;14.95;;;9.70;;
37633;SDS011;32048;49.902;22.508;2023-06-14T00:55:35;14.82;;;10.73;;
37633;SDS011;32048;49.902;22.508;2023-06-14T00:58:02;13.40;;;9.50;;
37633;SDS011;32048;49.902;22.508;2023-06-14T01:00:29;23.70;;;11.45;;
37633;SDS011;32048;49.902;22.508;2023-06-14T01:02:57;13.05;;;9.65;;
37633;SDS011;32048;49.902;22.508;2023-06-14T01:05:24;14.85;;;10.68;;
37633;SDS011;32048;49.902;22.508;2023-06-14T01:13:42;14.45;;;9.70;;
37633;SDS011;32048;49.902;22.508;2023-06-14T01:16:09;13.25;;;9.98;;
37633;SDS011;32048;49.902;22.508;2023-06-14T01:18:37;14.32;;;9.95;;
37633;SDS011;32048;49.902;22.508;2023-06-14T01:21:04;16.65;;;10.80;;
37633;SDS011;32048;49.902;22.508;2023-06-14T01:23:35;17.75;;;11.15;;
37633;SDS011;32048;49.902;22.508;2023-06-14T01:26:02;15.68;;;11.02;;
37633;SDS011;32048;49.902;22.508;2023-06-14T01:28:32;14.55;;;10.93;;
37633;SDS011;32048;49.902;22.508;2023-06-14T01:31:01;19.58;;;10.10;;
37633;SDS011;32048;49.902;22.508;2023-06-14T01:33:31;17.20;;;11.45;;
37633;SDS011;32048;49.902;22.508;2023-06-14T01:36:00;17.97;;;10.30;;
37633;SDS011;32048;49.902;22.508;2023-06-14T01:38:29;17.67;;;11.13;;
37633;SDS011;32048;49.902;22.508;2023-06-14T01:40:57;13.60;;;10.05;;
37633;SDS011;32048;49.902;22.508;2023-06-14T01:45:55;19.98;;;10.52;;
37633;SDS011;32048;49.902;22.508;2023-06-14T01:48:23;13.60;;;9.25;;
37633;SDS011;32048;49.902;22.508;2023-06-14T01:50:51;17.80;;;10.18;;
37633;SDS011;32048;49.902;22.508;2023-06-14T01:53:19;14.63;;;10.20;;
37633;SDS011;32048;49.902;22.508;2023-06-14T01:55:47;14.32;;;9.18;;
37633;SDS011;32048;49.902;22.508;2023-06-14T01:58:15;17.13;;;11.40;;
37633;SDS011;32048;49.902;22.508;2023-06-14T02:00:45;14.48;;;10.00;;
37633;SDS011;32048;49.902;22.508;2023-06-14T02:03:14;17.00;;;11.20;;
37633;SDS011;32048;49.902;22.508;2023-06-14T02:05:42;16.00;;;9.88;;
37633;SDS011;32048;49.902;22.508;2023-06-14T02:08:10;17.77;;;10.73;;
37633;SDS011;32048;49.902;22.508;2023-06-14T02:10:36;14.68;;;10.93;;
37633;SDS011;32048;49.902;22.508;2023-06-14T02:13:04;15.02;;;10.65;;
37633;SDS011;32048;49.902;22.508;2023-06-14T02:15:31;17.35;;;10.48;;
37633;SDS011;32048;49.902;22.508;2023-06-14T02:18:02;15.77;;;11.05;;
37633;SDS011;32048;49.902;22.508;2023-06-14T02:20:30;15.77;;;9.95;;
37633;SDS011;32048;49.902;22.508;2023-06-14T02:22:57;15.32;;;9.77;;
37633;SDS011;32048;49.902;22.508;2023-06-14T02:25:24;17.65;;;10.40;;
37633;SDS011;32048;49.902;22.508;2023-06-14T02:27:54;18.13;;;8.82;;
37633;SDS011;32048;49.902;22.508;2023-06-14T02:30:22;13.63;;;10.55;;
37633;SDS011;32048;49.902;22.508;2023-06-14T02:32:49;15.73;;;10.25;;
37633;SDS011;32048;49.902;22.508;2023-06-14T02:35:17;14.70;;;9.00;;
37633;SDS011;32048;49.902;22.508;2023-06-14T02:37:45;16.17;;;9.48;;
37633;SDS011;32048;49.902;22.508;2023-06-14T02:40:12;13.02;;;8.70;;
37633;SDS011;32048;49.902;22.508;2023-06-14T02:42:40;12.25;;;8.77;;
37633;SDS011;32048;49.902;22.508;2023-06-14T02:45:07;12.80;;;9.27;;
37633;SDS011;32048;49.902;22.508;2023-06-14T02:47:35;11.98;;;9.18;;
37633;SDS011;32048;49.902;22.508;2023-06-14T02:50:02;12.02;;;9.27;;
37633;SDS011;32048;49.902;22.508;2023-06-14T02:52:29;16.08;;;9.50;;
37633;SDS011;32048;49.902;22.508;2023-06-14T02:54:56;13.70;;;9.75;;
37633;SDS011;32048;49.902;22.508;2023-06-14T02:57:23;14.05;;;10.30;;
37633;SDS011;32048;49.902;22.508;2023-06-14T02:59:51;14.07;;;9.38;;
37633;SDS011;32048;49.902;22.508;2023-06-14T03:02:19;17.35;;;9.43;;
37633;SDS011;32048;49.902;22.508;2023-06-14T03:04:46;16.33;;;9.45;;
37633;SDS011;32048;49.902;22.508;2023-06-14T03:07:13;12.50;;;9.15;;
37633;SDS011;32048;49.902;22.508;2023-06-14T03:09:48;16.02;;;10.30;;
37633;SDS011;32048;49.902;22.508;2023-06-14T03:12:15;15.32;;;10.60;;
37633;SDS011;32048;49.902;22.508;2023-06-14T03:14:42;16.85;;;11.38;;
37633;SDS011;32048;49.902;22.508;2023-06-14T03:17:12;13.95;;;9.88;;
37633;SDS011;32048;49.902;22.508;2023-06-14T03:19:40;20.20;;;11.70;;
37633;SDS011;32048;49.902;22.508;2023-06-14T03:22:08;12.40;;;9.88;;
37633;SDS011;32048;49.902;22.508;2023-06-14T03:24:35;14.60;;;9.45;;
37633;SDS011;32048;49.902;22.508;2023-06-14T03:27:04;15.35;;;10.20;;
37633;SDS011;32048;49.902;22.508;2023-06-14T03:29:31;14.15;;;10.00;;
37633;SDS011;32048;49.902;22.508;2023-06-14T03:31:59;17.80;;;9.90;;
37633;SDS011;32048;49.902;22.508;2023-06-14T03:34:27;15.30;;;10.57;;
37633;SDS011;32048;49.902;22.508;2023-06-14T03:36:54;15.80;;;9.95;;
37633;SDS011;32048;49.902;22.508;2023-06-14T03:39:22;15.90;;;10.93;;
37633;SDS011;32048;49.902;22.508;2023-06-14T03:41:49;16.63;;;10.77;;
37633;SDS011;32048;49.902;22.508;2023-06-14T03:44:17;14.85;;;10.63;;
37633;SDS011;32048;49.902;22.508;2023-06-14T03:46:45;16.52;;;10.60;;
37633;SDS011;32048;49.902;22.508;2023-06-14T03:49:13;13.15;;;9.60;;
37633;SDS011;32048;49.902;22.508;2023-06-14T03:51:40;14.50;;;10.43;;
37633;SDS011;32048;49.902;22.508;2023-06-14T03:54:07;15.10;;;10.70;;
37633;SDS011;32048;49.902;22.508;2023-06-14T03:56:37;13.85;;;9.85;;
37633;SDS011;32048;49.902;22.508;2023-06-14T03:59:04;14.98;;;10.48;;
37633;SDS011;32048;49.902;22.508;2023-06-14T04:01:32;15.15;;;10.85;;
37633;SDS011;32048;49.902;22.508;2023-06-14T04:04:00;17.60;;;11.05;;
37633;SDS011;32048;49.902;22.508;2023-06-14T04:06:28;14.23;;;10.02;;
37633;SDS011;32048;49.902;22.508;2023-06-14T04:08:59;14.95;;;10.45;;
37633;SDS011;32048;49.902;22.508;2023-06-14T04:11:30;14.52;;;10.88;;
37633;SDS011;32048;49.902;22.508;2023-06-14T04:13:58;15.15;;;10.90;;
37633;SDS011;32048;49.902;22.508;2023-06-14T04:16:26;16.52;;;10.90;;
37633;SDS011;32048;49.902;22.508;2023-06-14T04:18:54;17.23;;;11.18;;
37633;SDS011;32048;49.902;22.508;2023-06-14T04:21:22;14.70;;;10.35;;
37633;SDS011;32048;49.902;22.508;2023-06-14T04:23:49;17.65;;;11.18;;
37633;SDS011;32048;49.902;22.508;2023-06-14T04:26:19;14.45;;;10.15;;
37633;SDS011;32048;49.902;22.508;2023-06-14T04:28:49;17.33;;;10.85;;
37633;SDS011;32048;49.902;22.508;2023-06-14T04:31:17;14.20;;;10.38;;
37633;SDS011;32048;49.902;22.508;2023-06-14T04:33:44;16.17;;;10.73;;
37633;SDS011;32048;49.902;22.508;2023-06-14T04:36:13;14.50;;;10.88;;
37633;SDS011;32048;49.902;22.508;2023-06-14T04:38:44;17.75;;;12.13;;
37633;SDS011;32048;49.902;22.508;2023-06-14T04:41:16;13.85;;;10.90;;
37633;SDS011;32048;49.902;22.508;2023-06-14T04:43:44;16.48;;;11.93;;
37633;SDS011;32048;49.902;22.508;2023-06-14T04:46:15;15.57;;;11.95;;
37633;SDS011;32048;49.902;22.508;2023-06-14T04:48:43;15.85;;;12.57;;
37633;SDS011;32048;49.902;22.508;2023-06-14T04:51:12;16.55;;;12.75;;
37633;SDS011;32048;49.902;22.508;2023-06-14T04:53:39;18.42;;;12.95;;
37633;SDS011;32048;49.902;22.508;2023-06-14T04:56:06;16.02;;;13.02;;
37633;SDS011;32048;49.902;22.508;2023-06-14T04:58:33;20.08;;;14.20;;
37633;SDS011;32048;49.902;22.508;2023-06-14T05:01:01;15.60;;;12.30;;
37633;SDS011;32048;49.902;22.508;2023-06-14T05:03:29;20.83;;;15.18;;
37633;SDS011;32048;49.902;22.508;2023-06-14T05:05:57;20.10;;;15.27;;
37633;SDS011;32048;49.902;22.508;2023-06-14T05:08:24;18.50;;;13.98;;
37633;SDS011;32048;49.902;22.508;2023-06-14T05:10:52;20.23;;;15.93;;
37633;SDS011;32048;49.902;22.508;2023-06-14T05:13:19;26.25;;;15.50;;
37633;SDS011;32048;49.902;22.508;2023-06-14T05:15:48;20.65;;;14.85;;
37633;SDS011;32048;49.902;22.508;2023-06-14T05:18:15;21.55;;;13.98;;
37633;SDS011;32048;49.902;22.508;2023-06-14T05:20:43;19.40;;;13.70;;
37633;SDS011;32048;49.902;22.508;2023-06-14T05:23:11;17.50;;;13.98;;
37633;SDS011;32048;49.902;22.508;2023-06-14T05:25:43;19.75;;;14.45;;
37633;SDS011;32048;49.902;22.508;2023-06-14T05:28:10;20.02;;;14.13;;
37633;SDS011;32048;49.902;22.508;2023-06-14T05:30:38;19.58;;;15.07;;
37633;SDS011;32048;49.902;22.508;2023-06-14T05:33:06;21.27;;;14.23;;
37633;SDS011;32048;49.902;22.508;2023-06-14T05:35:33;22.25;;;14.43;;
37633;SDS011;32048;49.902;22.508;2023-06-14T05:38:00;19.95;;;13.77;;
37633;SDS011;32048;49.902;22.508;2023-06-14T05:40:28;19.35;;;14.77;;
37633;SDS011;32048;49.902;22.508;2023-06-14T05:42:55;17.88;;;14.02;;
37633;SDS011;32048;49.902;22.508;2023-06-14T05:45:22;20.00;;;15.15;;
37633;SDS011;32048;49.902;22.508;2023-06-14T05:47:49;21.60;;;15.70;;
37633;SDS011;32048;49.902;22.508;2023-06-14T05:50:17;20.80;;;15.27;;
37633;SDS011;32048;49.902;22.508;2023-06-14T05:52:44;19.15;;;15.23;;
37633;SDS011;32048;49.902;22.508;2023-06-14T05:55:12;19.60;;;15.45;;
37633;SDS011;32048;49.902;22.508;2023-06-14T05:57:40;24.95;;;16.52;;
37633;SDS011;32048;49.902;22.508;2023-06-14T06:00:08;23.23;;;16.35;;
37633;SDS011;32048;49.902;22.508;2023-06-14T06:02:41;20.95;;;16.00;;
37633;SDS011;32048;49.902;22.508;2023-06-14T06:05:13;26.42;;;17.30;;
37633;SDS011;32048;49.902;22.508;2023-06-14T06:07:42;24.42;;;16.25;;
37633;SDS011;32048;49.902;22.508;2023-06-14T06:10:12;24.85;;;17.95;;
37633;SDS011;32048;49.902;22.508;2023-06-14T06:12:40;23.75;;;17.23;;
37633;SDS011;32048;49.902;22.508;2023-06-14T06:15:08;22.88;;;17.27;;
37633;SDS011;32048;49.902;22.508;2023-06-14T06:17:39;22.27;;;16.25;;
37633;SDS011;32048;49.902;22.508;2023-06-14T06:20:20;23.40;;;16.88;;
37633;SDS011;32048;49.902;22.508;2023-06-14T06:22:48;26.02;;;18.58;;
37633;SDS011;32048;49.902;22.508;2023-06-14T06:25:15;25.70;;;19.20;;
37633;SDS011;32048;49.902;22.508;2023-06-14T06:27:43;26.55;;;19.83;;
37633;SDS011;32048;49.902;22.508;2023-06-14T06:30:11;22.20;;;17.73;;
37633;SDS011;32048;49.902;22.508;2023-06-14T06:32:38;24.85;;;16.98;;
37633;SDS011;32048;49.902;22.508;2023-06-14T06:35:05;24.02;;;18.48;;
37633;SDS011;32048;49.902;22.508;2023-06-14T06:37:33;25.50;;;19.05;;
37633;SDS011;32048;49.902;22.508;2023-06-14T06:40:01;24.63;;;18.27;;
37633;SDS011;32048;49.902;22.508;2023-06-14T06:42:29;24.58;;;18.08;;
37633;SDS011;32048;49.902;22.508;2023-06-14T06:44:56;23.58;;;15.85;;
37633;SDS011;32048;49.902;22.508;2023-06-14T06:47:23;21.30;;;15.85;;
37633;SDS011;32048;49.902;22.508;2023-06-14T06:49:50;19.38;;;15.57;;
37633;SDS011;32048;49.902;22.508;2023-06-14T06:52:17;22.92;;;15.63;;
37633;SDS011;32048;49.902;22.508;2023-06-14T06:54:44;20.58;;;14.38;;
37633;SDS011;32048;49.902;22.508;2023-06-14T06:57:11;21.38;;;15.48;;
37633;SDS011;32048;49.902;22.508;2023-06-14T06:59:39;22.27;;;13.63;;
37633;SDS011;32048;49.902;22.508;2023-06-14T07:02:06;16.90;;;13.50;;
37633;SDS011;32048;49.902;22.508;2023-06-14T07:04:33;15.70;;;12.45;;
37633;SDS011;32048;49.902;22.508;2023-06-14T07:07:00;21.40;;;13.27;;
37633;SDS011;32048;49.902;22.508;2023-06-14T07:09:28;17.08;;;13.82;;
37633;SDS011;32048;49.902;22.508;2023-06-14T07:11:55;20.65;;;12.90;;
37633;SDS011;32048;49.902;22.508;2023-06-14T07:14:22;16.85;;;12.20;;
37633;SDS011;32048;49.902;22.508;2023-06-14T07:16:49;17.17;;;12.88;;
37633;SDS011;32048;49.902;22.508;2023-06-14T07:19:17;17.95;;;11.57;;
37633;SDS011;32048;49.902;22.508;2023-06-14T07:21:44;18.35;;;12.48;;
37633;SDS011;32048;49.902;22.508;2023-06-14T07:24:11;15.73;;;12.73;;
37633;SDS011;32048;49.902;22.508;2023-06-14T07:26:38;17.60;;;11.63;;
37633;SDS011;32048;49.902;22.508;2023-06-14T07:29:05;19.77;;;13.07;;
37633;SDS011;32048;49.902;22.508;2023-06-14T07:31:32;16.70;;;11.68;;
37633;SDS011;32048;49.902;22.508;2023-06-14T07:33:59;15.02;;;11.27;;
37633;SDS011;32048;49.902;22.508;2023-06-14T07:36:27;13.05;;;10.10;;
37633;SDS011;32048;49.902;22.508;2023-06-14T07:38:54;15.52;;;10.90;;
37633;SDS011;32048;49.902;22.508;2023-06-14T07:41:21;17.38;;;11.32;;
37633;SDS011;32048;49.902;22.508;2023-06-14T07:43:48;13.45;;;9.93;;
37633;SDS011;32048;49.902;22.508;2023-06-14T07:46:15;21.45;;;12.95;;
37633;SDS011;32048;49.902;22.508;2023-06-14T07:48:42;15.25;;;10.77;;
37633;SDS011;32048;49.902;22.508;2023-06-14T07:51:09;14.68;;;10.05;;
37633;SDS011;32048;49.902;22.508;2023-06-14T07:53:37;15.32;;;11.50;;
37633;SDS011;32048;49.902;22.508;2023-06-14T07:56:04;16.52;;;11.98;;
37633;SDS011;32048;49.902;22.508;2023-06-14T07:58:31;14.65;;;9.30;;
37633;SDS011;32048;49.902;22.508;2023-06-14T08:00:58;17.20;;;9.65;;
37633;SDS011;32048;49.902;22.508;2023-06-14T08:03:27;17.58;;;11.25;;
37633;SDS011;32048;49.902;22.508;2023-06-14T08:05:53;16.67;;;10.48;;
37633;SDS011;32048;49.902;22.508;2023-06-14T08:08:21;16.55;;;10.07;;
37633;SDS011;32048;49.902;22.508;2023-06-14T08:10:48;12.70;;;9.40;;
37633;SDS011;32048;49.902;22.508;2023-06-14T08:13:15;15.63;;;11.30;;
37633;SDS011;32048;49.902;22.508;2023-06-14T08:15:42;15.05;;;10.55;;
37633;SDS011;32048;49.902;22.508;2023-06-14T08:18:09;14.02;;;9.43;;
37633;SDS011;32048;49.902;22.508;2023-06-14T08:20:36;20.40;;;11.52;;
37633;SDS011;32048;49.902;22.508;2023-06-14T08:23:04;15.07;;;11.10;;
37633;SDS011;32048;49.902;22.508;2023-06-14T08:25:31;12.40;;;9.85;;
37633;SDS011;32048;49.902;22.508;2023-06-14T08:27:58;17.42;;;11.68;;
37633;SDS011;32048;49.902;22.508;2023-06-14T08:30:26;15.13;;;10.85;;
37633;SDS011;32048;49.902;22.508;2023-06-14T08:32:53;12.40;;;8.98;;
37633;SDS011;32048;49.902;22.508;2023-06-14T08:35:41;15.10;;;11.10;;
37633;SDS011;32048;49.902;22.508;2023-06-14T08:38:10;17.88;;;11.70;;
37633;SDS011;32048;49.902;22.508;2023-06-14T08:40:38;16.70;;;11.00;;
37633;SDS011;32048;49.902;22.508;2023-06-14T08:43:09;13.38;;;10.35;;
37633;SDS011;32048;49.902;22.508;2023-06-14T08:45:36;14.27;;;10.73;;
37633;SDS011;32048;49.902;22.508;2023-06-14T08:48:03;16.33;;;10.73;;
37633;SDS011;32048;49.902;22.508;2023-06-14T08:50:32;16.48;;;10.63;;
37633;SDS011;32048;49.902;22.508;2023-06-14T08:53:02;15.45;;;10.82;;
37633;SDS011;32048;49.902;22.508;2023-06-14T08:55:31;13.10;;;10.48;;
37633;SDS011;32048;49.902;22.508;2023-06-14T08:58:03;14.82;;;11.13;;
37633;SDS011;32048;49.902;22.508;2023-06-14T09:00:32;14.68;;;11.23;;
37633;SDS011;32048;49.902;22.508;2023-06-14T09:03:00;15.63;;;11.18;;
37633;SDS011;32048;49.902;22.508;2023-06-14T09:05:28;13.50;;;10.65;;
37633;SDS011;32048;49.902;22.508;2023-06-14T09:07:55;13.40;;;10.55;;
37633;SDS011;32048;49.902;22.508;2023-06-14T09:10:31;15.05;;;10.95;;
37633;SDS011;32048;49.902;22.508;2023-06-14T09:13:05;13.95;;;10.98;;
37633;SDS011;32048;49.902;22.508;2023-06-14T09:15:32;16.40;;;9.85;;
37633;SDS011;32048;49.902;22.508;2023-06-14T09:18:01;14.20;;;10.57;;
37633;SDS011;32048;49.902;22.508;2023-06-14T09:20:30;11.45;;;9.07;;
37633;SDS011;32048;49.902;22.508;2023-06-14T09:22:57;27.90;;;17.00;;
37633;SDS011;32048;49.902;22.508;2023-06-14T09:25:25;25.05;;;13.40;;
37633;SDS011;32048;49.902;22.508;2023-06-14T09:28:06;18.13;;;11.80;;
37633;SDS011;32048;49.902;22.508;2023-06-14T09:30:35;43.75;;;25.08;;
37633;SDS011;32048;49.902;22.508;2023-06-14T09:33:06;14.68;;;10.32;;
37633;SDS011;32048;49.902;22.508;2023-06-14T09:35:33;9.88;;;7.38;;
37633;SDS011;32048;49.902;22.508;2023-06-14T09:38:00;9.32;;;6.70;;
37633;SDS011;32048;49.902;22.508;2023-06-14T09:40:28;10.45;;;6.40;;
37633;SDS011;32048;49.902;22.508;2023-06-14T09:42:55;8.57;;;6.38;;
37633;SDS011;32048;49.902;22.508;2023-06-14T09:45:25;10.05;;;6.38;;
37633;SDS011;32048;49.902;22.508;2023-06-14T09:47:56;8.70;;;5.53;;
37633;SDS011;32048;49.902;22.508;2023-06-14T09:50:28;8.23;;;5.13;;
37633;SDS011;32048;49.902;22.508;2023-06-14T09:52:56;7.95;;;5.75;;
37633;SDS011;32048;49.902;22.508;2023-06-14T09:55:28;9.80;;;5.90;;
37633;SDS011;32048;49.902;22.508;2023-06-14T09:57:58;9.23;;;6.22;;
37633;SDS011;32048;49.902;22.508;2023-06-14T10:02:56;8.55;;;5.50;;
37633;SDS011;32048;49.902;22.508;2023-06-14T10:05:28;8.80;;;6.18;;
37633;SDS011;32048;49.902;22.508;2023-06-14T10:07:58;7.18;;;5.65;;
37633;SDS011;32048;49.902;22.508;2023-06-14T10:10:29;8.73;;;5.60;;
37633;SDS011;32048;49.902;22.508;2023-06-14T10:12:57;8.73;;;6.05;;
37633;SDS011;32048;49.902;22.508;2023-06-14T10:15:32;7.47;;;5.30;;
37633;SDS011;32048;49.902;22.508;2023-06-14T10:18:07;9.80;;;6.40;;
37633;SDS011;32048;49.902;22.508;2023-06-14T10:21:12;13.30;;;6.57;;
37633;SDS011;32048;49.902;22.508;2023-06-14T10:23:40;10.80;;;6.90;;
37633;SDS011;32048;49.902;22.508;2023-06-14T10:26:13;12.48;;;6.93;;
37633;SDS011;32048;49.902;22.508;2023-06-14T10:28:59;11.02;;;6.90;;
37633;SDS011;32048;49.902;22.508;2023-06-14T10:31:42;13.60;;;6.97;;
37633;SDS011;32048;49.902;22.508;2023-06-14T10:34:32;11.95;;;6.32;;
37633;SDS011;32048;49.902;22.508;2023-06-14T10:39:33;13.02;;;6.68;;
37633;SDS011;32048;49.902;22.508;2023-06-14T10:42:05;13.38;;;7.88;;
37633;SDS011;32048;49.902;22.508;2023-06-14T10:47:06;12.00;;;6.88;;
37633;SDS011;32048;49.902;22.508;2023-06-14T10:49:42;12.25;;;7.95;;
37633;SDS011;32048;49.902;22.508;2023-06-14T10:52:12;17.45;;;8.15;;
37633;SDS011;32048;49.902;22.508;2023-06-14T10:57:36;21.33;;;9.30;;
37633;SDS011;32048;49.902;22.508;2023-06-14T11:00:19;20.63;;;9.20;;
37633;SDS011;32048;49.902;22.508;2023-06-14T11:05:55;18.30;;;9.02;;
37633;SDS011;32048;49.902;22.508;2023-06-14T11:08:51;14.27;;;8.35;;
37633;SDS011;32048;49.902;22.508;2023-06-14T11:11:23;12.60;;;6.90;;
37633;SDS011;32048;49.902;22.508;2023-06-14T11:13:59;16.80;;;8.07;;
37633;SDS011;32048;49.902;22.508;2023-06-14T11:16:27;12.90;;;9.07;;
37633;SDS011;32048;49.902;22.508;2023-06-14T11:18:54;13.65;;;8.27;;
37633;SDS011;32048;49.902;22.508;2023-06-14T11:21:23;17.80;;;8.02;;
37633;SDS011;32048;49.902;22.508;2023-06-14T11:23:52;11.85;;;7.70;;
37633;SDS011;32048;49.902;22.508;2023-06-14T11:26:26;16.73;;;7.75;;
37633;SDS011;32048;49.902;22.508;2023-06-14T11:28:58;10.95;;;6.68;;
37633;SDS011;32048;49.902;22.508;2023-06-14T11:31:27;12.55;;;7.88;;
37633;SDS011;32048;49.902;22.508;2023-06-14T11:33:55;11.20;;;8.68;;
37633;SDS011;32048;49.902;22.508;2023-06-14T11:36:28;12.20;;;7.78;;
37633;SDS011;32048;49.902;22.508;2023-06-14T11:39:01;10.13;;;7.93;;
37633;SDS011;32048;49.902;22.508;2023-06-14T11:41:37;12.73;;;7.53;;
37633;SDS011;32048;49.902;22.508;2023-06-14T11:44:05;14.65;;;7.35;;
37633;SDS011;32048;49.902;22.508;2023-06-14T11:46:33;14.82;;;7.07;;
37633;SDS011;32048;49.902;22.508;2023-06-14T11:49:00;10.77;;;6.30;;
37633;SDS011;32048;49.902;22.508;2023-06-14T11:51:34;10.48;;;8.60;;
37633;SDS011;32048;49.902;22.508;2023-06-14T11:54:02;12.05;;;8.68;;
37633;SDS011;32048;49.902;22.508;2023-06-14T11:56:31;10.60;;;6.45;;
37633;SDS011;32048;49.902;22.508;2023-06-14T11:58:59;13.15;;;7.40;;
37633;SDS011;32048;49.902;22.508;2023-06-14T12:01:27;14.13;;;8.35;;
37633;SDS011;32048;49.902;22.508;2023-06-14T12:03:56;12.77;;;7.88;;
37633;SDS011;32048;49.902;22.508;2023-06-14T12:06:27;12.40;;;8.93;;
37633;SDS011;32048;49.902;22.508;2023-06-14T12:09:00;14.00;;;9.10;;
37633;SDS011;32048;49.902;22.508;2023-06-14T12:11:32;16.73;;;8.25;;
37633;SDS011;32048;49.902;22.508;2023-06-14T12:14:02;12.68;;;8.50;;
37633;SDS011;32048;49.902;22.508;2023-06-14T12:16:33;10.27;;;8.10;;
37633;SDS011;32048;49.902;22.508;2023-06-14T12:19:15;13.73;;;9.70;;
37633;SDS011;32048;49.902;22.508;2023-06-14T12:21:46;13.85;;;9.80;;
37633;SDS011;32048;49.902;22.508;2023-06-14T12:24:16;12.18;;;9.30;;
37633;SDS011;32048;49.902;22.508;2023-06-14T12:26:43;13.55;;;10.15;;
37633;SDS011;32048;49.902;22.508;2023-06-14T12:29:10;17.92;;;12.57;;
37633;SDS011;32048;49.902;22.508;2023-06-14T12:31:40;18.30;;;11.00;;
37633;SDS011;32048;49.902;22.508;2023-06-14T12:34:08;12.60;;;11.10;;
37633;SDS011;32048;49.902;22.508;2023-06-14T12:36:35;12.98;;;11.00;;
37633;SDS011;32048;49.902;22.508;2023-06-14T12:39:08;12.52;;;10.55;;
37633;SDS011;32048;49.902;22.508;2023-06-14T12:41:36;14.63;;;9.93;;
37633;SDS011;32048;49.902;22.508;2023-06-14T12:44:03;13.13;;;11.35;;
37633;SDS011;32048;49.902;22.508;2023-06-14T12:46:31;13.95;;;11.05;;
37633;SDS011;32048;49.902;22.508;2023-06-14T12:48:59;13.85;;;11.60;;
37633;SDS011;32048;49.902;22.508;2023-06-14T12:51:26;20.13;;;16.90;;
37633;SDS011;32048;49.902;22.508;2023-06-14T12:53:53;20.85;;;17.92;;
37633;SDS011;32048;49.902;22.508;2023-06-14T12:56:20;16.45;;;12.85;;
37633;SDS011;32048;49.902;22.508;2023-06-14T12:58:50;12.50;;;9.93;;
37633;SDS011;32048;49.902;22.508;2023-06-14T13:01:17;13.45;;;10.05;;
37633;SDS011;32048;49.902;22.508;2023-06-14T13:03:46;13.82;;;11.57;;
37633;SDS011;32048;49.902;22.508;2023-06-14T13:06:14;17.92;;;12.32;;
37633;SDS011;32048;49.902;22.508;2023-06-14T13:08:41;14.43;;;11.20;;
37633;SDS011;32048;49.902;22.508;2023-06-14T13:11:08;16.33;;;12.48;;
37633;SDS011;32048;49.902;22.508;2023-06-14T13:13:35;15.82;;;12.23;;
37633;SDS011;32048;49.902;22.508;2023-06-14T13:16:02;13.88;;;12.45;;
37633;SDS011;32048;49.902;22.508;2023-06-14T13:18:29;18.35;;;13.15;;
37633;SDS011;32048;49.902;22.508;2023-06-14T13:20:57;16.23;;;13.88;;
37633;SDS011;32048;49.902;22.508;2023-06-14T13:23:24;15.50;;;13.90;;
37633;SDS011;32048;49.902;22.508;2023-06-14T13:25:51;15.93;;;12.13;;
37633;SDS011;32048;49.902;22.508;2023-06-14T13:28:18;17.77;;;12.77;;
37633;SDS011;32048;49.902;22.508;2023-06-14T13:30:45;16.70;;;13.10;;
37633;SDS011;32048;49.902;22.508;2023-06-14T13:33:13;14.60;;;13.10;;
37633;SDS011;32048;49.902;22.508;2023-06-14T13:35:40;14.00;;;12.60;;
37633;SDS011;32048;49.902;22.508;2023-06-14T13:38:08;14.18;;;12.40;;
37633;SDS011;32048;49.902;22.508;2023-06-14T13:40:37;14.02;;;12.10;;
37633;SDS011;32048;49.902;22.508;2023-06-14T13:43:04;15.27;;;12.32;;
37633;SDS011;32048;49.902;22.508;2023-06-14T13:45:32;14.38;;;11.10;;
37633;SDS011;32048;49.902;22.508;2023-06-14T13:47:59;16.00;;;11.65;;
37633;SDS011;32048;49.902;22.508;2023-06-14T13:50:26;12.70;;;10.90;;
37633;SDS011;32048;49.902;22.508;2023-06-14T13:52:53;13.10;;;10.82;;
37633;SDS011;32048;49.902;22.508;2023-06-14T13:55:21;13.25;;;10.35;;
37633;SDS011;32048;49.902;22.508;2023-06-14T13:57:48;15.05;;;12.23;;
37633;SDS011;32048;49.902;22.508;2023-06-14T14:00:15;14.10;;;11.43;;
37633;SDS011;32048;49.902;22.508;2023-06-14T14:02:46;11.82;;;10.20;;
37633;SDS011;32048;49.902;22.508;2023-06-14T14:05:14;14.10;;;10.45;;
37633;SDS011;32048;49.902;22.508;2023-06-14T14:07:41;11.20;;;9.85;;
37633;SDS011;32048;49.902;22.508;2023-06-14T14:10:08;11.80;;;9.85;;
37633;SDS011;32048;49.902;22.508;2023-06-14T14:12:36;12.48;;;9.75;;
37633;SDS011;32048;49.902;22.508;2023-06-14T14:17:39;11.55;;;9.23;;
37633;SDS011;32048;49.902;22.508;2023-06-14T14:20:07;12.38;;;9.07;;
37633;SDS011;32048;49.902;22.508;2023-06-14T14:22:35;7.95;;;7.03;;
37633;SDS011;32048;49.902;22.508;2023-06-14T14:25:02;11.25;;;8.55;;
37633;SDS011;32048;49.902;22.508;2023-06-14T14:27:29;10.88;;;8.90;;
37633;SDS011;32048;49.902;22.508;2023-06-14T14:29:56;12.13;;;10.00;;
37633;SDS011;32048;49.902;22.508;2023-06-14T14:32:23;11.30;;;10.20;;
37633;SDS011;32048;49.902;22.508;2023-06-14T14:34:51;11.18;;;9.27;;
37633;SDS011;32048;49.902;22.508;2023-06-14T14:37:17;13.15;;;11.02;;
37633;SDS011;32048;49.902;22.508;2023-06-14T14:39:45;15.18;;;10.85;;
37633;SDS011;32048;49.902;22.508;2023-06-14T14:42:12;12.95;;;10.82;;
37633;SDS011;32048;49.902;22.508;2023-06-14T14:44:40;12.20;;;9.35;;
37633;SDS011;32048;49.902;22.508;2023-06-14T14:47:07;12.05;;;9.02;;